Time;durP1;ratioP1;P1;durP2;ratioP2;P2;SDS_P1;SDS_P2;PMS_P1;PMS_P2;Temp;Humidity;BMP_temperature;BMP_pressure;BME280_temperature;BME280_humidity;BME280_pressure;Samples;Min_cycle;Max_cycle;Signal;HPM_P1;HPM_P2
2022/01/28 00:01:23;;;;;;;1.37;1.13;;;22.50;43.90;;;;;;5082510;27;90477;-74
2022/01/28 00:04:00;;;;;;;1.13;0.97;;;22.60;43.80;;;;;;5080744;27;88983;-74
2022/01/28 00:06:29;;;;;;;3.30;1.00;;;22.60;43.70;;;;;;5068299;27;88602;-73
2022/01/28 00:08:57;;;;;;;2.60;0.90;;;22.60;43.70;;;;;;5077766;27;89168;-73
2022/01/28 00:11:25;;;;;;;3.53;1.20;;;22.60;43.70;;;;;;5078756;27;90684;-73
2022/01/28 00:14:00;;;;;;;1.70;1.17;;;22.50;43.60;;;;;;5081371;27;89089;-74
2022/01/28 00:19:46;;;;;;;1.10;0.80;;;22.50;43.70;;;;;;5081308;27;88854;-74
2022/01/28 00:38:52;;;;;;;1.23;1.00;;;22.00;43.70;;;;;;5079787;27;88625;-74
2022/01/28 00:41:20;;;;;;;1.37;0.87;;;21.90;43.70;;;;;;5075646;27;88613;-74
2022/01/28 00:43:48;;;;;;;1.87;1.07;;;21.90;43.70;;;;;;5081879;27;89942;-74
2022/01/28 00:46:16;;;;;;;2.87;0.77;;;21.80;43.70;;;;;;5081583;27;88836;-72
2022/01/28 00:48:44;;;;;;;1.40;1.00;;;21.80;43.70;;;;;;5079816;27;88642;-74
2022/01/28 00:51:12;;;;;;;6.47;0.90;;;21.70;44.30;;;;;;5082198;27;88362;-74
2022/01/28 00:53:40;;;;;;;2.87;0.90;;;21.70;43.70;;;;;;5081082;27;89688;-74
2022/01/28 00:56:10;;;;;;;1.73;1.07;;;21.70;43.80;;;;;;5080574;27;88625;-72
2022/01/28 00:58:38;;;;;;;5.43;0.90;;;21.70;43.80;;;;;;5080444;27;88421;-73
2022/01/28 01:01:06;;;;;;;1.10;0.90;;;21.60;43.70;;;;;;5082292;27;88374;-74
2022/01/28 01:03:34;;;;;;;3.93;1.03;;;21.60;43.70;;;;;;5081226;27;88224;-74
2022/01/28 01:06:02;;;;;;;2.80;1.20;;;21.60;43.70;;;;;;5082244;27;89775;-73
2022/01/28 01:08:30;;;;;;;2.47;1.03;;;21.50;43.70;;;;;;5080379;27;88552;-73
2022/01/28 01:10:58;;;;;;;1.90;0.93;;;21.50;43.70;;;;;;5079208;27;88599;-74
2022/01/28 01:13:27;;;;;;;1.73;1.13;;;21.50;43.70;;;;;;5078663;27;89980;-73
2022/01/28 01:15:59;;;;;;;1.60;0.83;;;21.40;43.70;;;;;;5069770;27;91172;-74
2022/01/28 01:18:33;;;;;;;1.80;1.00;;;21.40;43.70;;;;;;5072776;27;88583;-66
2022/01/28 01:21:06;;;;;;;1.43;0.83;;;21.40;43.80;;;;;;5074062;27;88534;-67
2022/01/28 01:23:36;;;;;;;1.03;1.00;;;21.30;43.70;;;;;;5074427;27;90005;-67
2022/01/28 01:26:10;;;;;;;1.90;1.30;;;21.30;43.80;;;;;;5078349;27;89498;-66
2022/01/28 01:28:41;;;;;;;2.93;1.00;;;21.30;43.80;;;;;;5077965;27;88519;-66
2022/01/28 01:31:12;;;;;;;5.77;1.57;;;21.20;43.70;;;;;;5076050;27;88903;-66
2022/01/28 01:33:44;;;;;;;2.90;1.13;;;21.20;43.70;;;;;;5073033;27;90300;-67
2022/01/28 01:36:12;;;;;;;2.43;1.50;;;21.20;43.70;;;;;;5077230;27;89231;-66
2022/01/28 01:38:42;;;;;;;1.87;1.13;;;21.10;43.70;;;;;;5076131;27;88699;-67
2022/01/28 01:41:14;;;;;;;2.23;1.00;;;21.10;43.70;;;;;;5079983;27;88581;-66
2022/01/28 01:43:54;;;;;;;7.13;1.37;;;21.10;43.70;;;;;;5080205;27;89481;-66
2022/01/28 01:46:31;;;;;;;1.43;0.90;;;21.10;43.70;;;;;;5080090;27;88912;-66
2022/01/28 01:52:02;;;;;;;2.37;1.20;;;21.00;43.60;;;;;;5078615;27;88592;-66
2022/01/28 01:54:31;;;;;;;3.67;1.40;;;21.00;43.70;;;;;;5080069;27;90645;-67
2022/01/28 01:56:59;;;;;;;1.93;1.30;;;21.00;43.70;;;;;;5063917;27;91945;-67
2022/01/28 01:59:29;;;;;;;1.87;1.20;;;21.00;43.70;;;;;;5078290;27;89354;-67
2022/01/28 02:01:57;;;;;;;1.77;1.17;;;20.90;43.60;;;;;;5079639;27;88920;-67
2022/01/28 02:04:25;;;;;;;1.47;1.13;;;20.90;43.70;;;;;;5079228;27;90089;-67
2022/01/28 02:06:53;;;;;;;3.00;1.27;;;20.90;43.70;;;;;;5061578;27;88944;-67
2022/01/28 02:09:21;;;;;;;5.27;1.40;;;20.90;43.70;;;;;;5073461;27;89724;-67
2022/01/28 02:11:49;;;;;;;1.37;1.07;;;20.90;43.70;;;;;;5069191;27;88498;-66
2022/01/28 02:14:17;;;;;;;1.40;1.30;;;20.90;43.70;;;;;;5078299;27;89498;-67
2022/01/28 02:16:46;;;;;;;2.23;1.37;;;20.90;43.70;;;;;;5079472;27;90314;-67
2022/01/28 02:19:14;;;;;;;4.93;2.13;;;20.80;43.60;;;;;;5079385;27;88660;-67
2022/01/28 02:21:47;;;;;;;1.80;1.50;;;20.80;43.60;;;;;;5077433;27;88744;-67
2022/01/28 02:24:18;;;;;;;4.53;1.80;;;20.80;43.70;;;;;;5077787;27;89298;-66
2022/01/28 02:26:46;;;;;;;2.83;1.30;;;20.80;43.60;;;;;;5064329;27;89932;-66
2022/01/28 02:29:26;;;;;;;4.73;1.83;;;20.80;43.60;;;;;;5068986;27;88514;-66
2022/01/28 02:31:54;;;;;;;6.10;1.60;;;20.70;43.60;;;;;;5080008;27;90053;-67
2022/01/28 02:34:22;;;;;;;2.23;1.37;;;20.70;43.60;;;;;;5080530;27;90535;-67
2022/01/28 02:36:51;;;;;;;5.47;1.40;;;20.70;43.60;;;;;;5084168;27;90106;-67
2022/01/28 02:39:19;;;;;;;2.20;1.73;;;20.70;43.60;;;;;;5078657;27;88504;-66
2022/01/28 02:41:51;;;;;;;2.13;1.37;;;20.70;43.60;;;;;;5075452;27;89042;-66
2022/01/28 02:44:24;;;;;;;3.63;1.77;;;20.60;43.50;;;;;;5083075;27;91037;-67
2022/01/28 02:46:58;;;;;;;4.73;1.43;;;20.60;43.50;;;;;;5080541;27;89158;-67
2022/01/28 02:49:32;;;;;;;3.93;1.83;;;20.60;43.50;;;;;;5082565;27;88528;-67
2022/01/28 02:52:03;;;;;;;2.57;1.70;;;20.60;43.50;;;;;;5083392;27;88640;-67
2022/01/28 02:54:34;;;;;;;3.03;1.60;;;20.60;43.50;;;;;;5076532;27;89369;-67
2022/01/28 02:57:05;;;;;;;3.90;1.50;;;20.50;43.50;;;;;;5076917;27;88970;-67
2022/01/28 02:59:33;;;;;;;1.83;1.40;;;20.50;43.50;;;;;;5076202;27;88368;-67
2022/01/28 03:02:01;;;;;;;2.60;1.67;;;20.50;43.50;;;;;;5083340;27;88611;-67
2022/01/28 03:04:58;;;;;;;2.67;1.60;;;20.50;43.60;;;;;;5082266;27;90372;-67
2022/01/28 03:07:28;;;;;;;2.67;1.70;;;20.50;43.60;;;;;;5083646;27;88993;-66
2022/01/28 03:10:25;;;;;;;3.83;1.40;;;20.50;43.60;;;;;;5082032;27;88552;-67
2022/01/28 03:13:15;;;;;;;3.37;1.80;;;20.40;43.50;;;;;;5063949;27;88497;-67
2022/01/28 03:15:50;;;;;;;7.97;2.07;;;20.40;43.50;;;;;;5080769;27;90866;-66
2022/01/28 03:18:22;;;;;;;5.33;1.70;;;20.40;43.50;;;;;;5080363;27;89951;-67
2022/01/28 03:21:00;;;;;;;3.67;1.50;;;20.40;43.50;;;;;;5084023;27;88415;-67
2022/01/28 03:23:32;;;;;;;2.57;1.10;;;20.40;43.60;;;;;;5083995;27;88412;-67
2022/01/28 03:26:00;;;;;;;2.50;1.43;;;20.40;43.60;;;;;;5081861;27;90628;-66
2022/01/28 03:28:28;;;;;;;4.43;1.43;;;20.40;43.60;;;;;;5081016;27;90215;-67
2022/01/28 03:30:56;;;;;;;2.07;1.60;;;20.30;43.60;;;;;;5083432;27;88739;-66
2022/01/28 03:33:24;;;;;;;1.90;1.20;;;20.30;43.60;;;;;;5080926;27;88801;-66
2022/01/28 03:35:51;;;;;;;2.40;1.40;;;20.30;43.60;;;;;;5072141;27;89547;-66
2022/01/28 03:38:20;;;;;;;3.90;1.30;;;20.40;43.70;;;;;;5082147;27;89382;-67
2022/01/28 03:40:51;;;;;;;2.90;1.53;;;20.30;43.60;;;;;;5074707;27;88652;-66
2022/01/28 03:43:19;;;;;;;2.93;1.27;;;20.30;43.60;;;;;;5080888;27;88731;-66
2022/01/28 03:45:47;;;;;;;1.50;1.27;;;20.20;43.50;;;;;;5082308;27;89332;-66
2022/01/28 03:48:15;;;;;;;1.47;1.37;;;20.20;43.50;;;;;;5080993;27;89062;-66
2022/01/28 03:50:43;;;;;;;3.13;1.20;;;20.20;43.60;;;;;;5083352;27;88476;-67
2022/01/28 03:53:11;;;;;;;3.70;1.37;;;20.20;43.60;;;;;;5080637;27;88506;-67
2022/01/28 03:55:39;;;;;;;1.43;1.07;;;20.20;43.60;;;;;;5080061;27;90606;-67
2022/01/28 03:58:09;;;;;;;3.67;1.50;;;20.20;43.70;;;;;;5081862;27;88891;-66
2022/01/28 04:00:37;;;;;;;2.73;1.20;;;20.10;43.60;;;;;;5062971;27;88495;-66
2022/01/28 04:03:09;;;;;;;2.37;1.40;;;20.10;43.60;;;;;;5067983;27;88670;-66
2022/01/28 04:13:56;;;;;;;1.40;1.00;;;20.10;44.30;;;;;;5074235;27;88444;-65
2022/01/28 04:17:18;;;;;;;1.83;1.20;;;20.10;43.60;;;;;;5081966;27;90673;-65
2022/01/28 04:19:20;;;;;;;1.67;1.17;;;20.00;43.50;;;;;;5075100;27;88914;-66
2022/01/28 04:21:48;;;;;;;1.03;0.90;;;20.00;43.50;;;;;;5062275;27;88428;-66
2022/01/28 04:24:16;;;;;;;4.07;1.73;;;20.00;43.50;;;;;;5064156;27;88540;-66
2022/01/28 04:26:44;;;;;;;2.07;1.20;;;20.00;43.60;;;;;;5061426;27;89485;-66
2022/01/28 04:29:13;;;;;;;2.50;0.97;;;20.10;43.60;;;;;;5079580;27;89997;-66
2022/01/28 04:31:43;;;;;;;1.13;0.70;;;20.00;43.70;;;;;;5082899;27;88234;-66
2022/01/28 04:34:11;;;;;;;3.07;1.30;;;20.00;43.60;;;;;;5081445;27;88643;-66
2022/01/28 04:36:47;;;;;;;4.57;1.20;;;20.00;43.60;;;;;;5081866;27;90732;-66
2022/01/28 04:39:26;;;;;;;2.90;1.60;;;20.00;43.70;;;;;;5080852;27;90085;-66
2022/01/28 04:42:03;;;;;;;2.10;1.27;;;20.00;43.60;;;;;;5081957;27;88747;-66
2022/01/28 04:44:40;;;;;;;2.23;1.20;;;20.00;43.60;;;;;;5081771;27;88922;-66
2022/01/28 04:47:15;;;;;;;3.77;1.20;;;19.90;43.60;;;;;;5064930;27;90708;-66
2022/01/28 04:49:54;;;;;;;3.93;1.30;;;19.90;43.60;;;;;;5081047;27;90242;-66
2022/01/28 04:55:41;;;;;;;1.83;0.87;;;19.90;43.60;;;;;;4998941;28;88624;-66
2022/01/28 04:58:31;;;;;;;2.07;1.20;;;19.90;43.60;;;;;;4990687;28;90921;-65
2022/01/28 05:01:19;;;;;;;2.30;0.77;;;19.80;43.50;;;;;;5057735;27;92235;-66
2022/01/28 05:04:03;;;;;;;1.70;1.30;;;19.80;43.60;;;;;;5080512;27;88549;-67
2022/01/28 05:07:04;;;;;;;2.73;1.07;;;19.80;43.70;;;;;;5082523;27;88326;-66
2022/01/28 05:10:07;;;;;;;2.03;0.87;;;19.80;43.60;;;;;;5072767;27;89772;-65
2022/01/28 05:15:45;;;;;;;1.87;0.83;;;19.80;43.70;;;;;;5077949;27;88644;-65
2022/01/28 05:24:13;;;;;;;1.27;0.50;;;19.70;43.60;;;;;;5024734;27;90550;-64
2022/01/28 05:26:53;;;;;;;1.40;0.80;;;19.70;43.60;;;;;;5081550;27;88353;-66
2022/01/28 05:29:21;;;;;;;2.23;1.00;;;19.70;43.70;;;;;;5074741;27;88737;-66
2022/01/28 05:31:49;;;;;;;1.57;0.90;;;19.70;43.60;;;;;;5061821;27;89763;-66
2022/01/28 05:34:18;;;;;;;1.03;0.90;;;19.70;43.70;;;;;;5085004;27;92458;-66
2022/01/28 05:36:46;;;;;;;0.97;0.70;;;19.70;43.70;;;;;;5079901;27;88299;-64
2022/01/28 05:39:14;;;;;;;1.53;0.77;;;19.70;43.70;;;;;;5065101;27;90481;-65
2022/01/28 05:41:42;;;;;;;1.13;0.73;;;19.70;43.70;;;;;;5074826;27;90645;-65
2022/01/28 05:44:10;;;;;;;1.03;0.90;;;19.70;43.70;;;;;;5077686;27;89473;-64
2022/01/28 05:46:38;;;;;;;0.70;0.53;;;19.70;43.70;;;;;;5080089;27;88531;-64
2022/01/28 05:49:06;;;;;;;3.10;0.87;;;19.70;43.70;;;;;;5081315;27;89640;-64
2022/01/28 05:51:35;;;;;;;2.37;0.83;;;19.70;43.70;;;;;;5060480;27;90539;-64
2022/01/28 05:54:03;;;;;;;1.37;0.73;;;19.70;43.70;;;;;;5077786;27;89496;-65
2022/01/28 05:56:32;;;;;;;1.80;1.10;;;19.70;43.70;;;;;;5077362;27;88482;-64
2022/01/28 05:59:00;;;;;;;1.13;0.67;;;19.60;43.60;;;;;;5080324;27;88570;-64
2022/01/28 06:01:28;;;;;;;1.57;0.70;;;19.60;43.60;;;;;;5080000;27;90062;-64
2022/01/28 06:03:56;;;;;;;0.87;0.60;;;19.60;43.60;;;;;;5078980;27;88949;-64
2022/01/28 06:06:24;;;;;;;1.50;1.10;;;19.60;43.70;;;;;;5080124;27;88506;-64
2022/01/28 06:08:55;;;;;;;0.80;0.80;;;19.60;43.70;;;;;;5072433;27;88638;-64
2022/01/28 06:11:23;;;;;;;0.87;0.80;;;19.60;43.70;;;;;;5081662;27;94020;-64
2022/01/28 06:13:51;;;;;;;1.63;0.77;;;19.60;43.70;;;;;;5069240;27;88388;-65
2022/01/28 06:16:19;;;;;;;2.03;1.00;;;19.60;43.70;;;;;;5072648;27;88587;-65
2022/01/28 06:18:47;;;;;;;1.63;0.90;;;19.60;43.70;;;;;;5080374;27;88681;-65
2022/01/28 06:21:16;;;;;;;1.87;0.80;;;19.60;43.70;;;;;;5084389;27;90698;-64
2022/01/28 06:23:44;;;;;;;1.20;0.80;;;19.60;43.80;;;;;;5080650;27;88953;-65
2022/01/28 06:26:13;;;;;;;2.73;0.97;;;19.50;43.70;;;;;;5084356;27;88327;-65
2022/01/28 06:28:41;;;;;;;2.27;0.80;;;19.50;43.70;;;;;;5083804;27;89802;-64
2022/01/28 06:31:10;;;;;;;4.07;0.90;;;19.50;43.70;;;;;;5076596;27;90597;-65
2022/01/28 06:33:38;;;;;;;2.83;0.70;;;19.50;43.70;;;;;;5074221;27;89882;-64
2022/01/28 06:36:06;;;;;;;1.00;0.63;;;19.50;43.70;;;;;;5077230;27;88804;-65
2022/01/28 06:38:34;;;;;;;1.47;0.93;;;19.50;43.70;;;;;;5067703;27;88485;-65
2022/01/28 06:41:02;;;;;;;4.63;1.20;;;19.50;43.70;;;;;;5069798;27;89572;-65
2022/01/28 06:43:31;;;;;;;1.37;0.80;;;19.50;43.70;;;;;;5066686;27;88846;-66
2022/01/28 06:46:00;;;;;;;3.33;0.70;;;19.50;44.30;;;;;;5070234;27;88692;-65
2022/01/28 06:48:28;;;;;;;1.90;0.80;;;19.50;43.70;;;;;;5070237;27;88695;-66
2022/01/28 06:50:55;;;;;;;3.23;1.00;;;19.50;43.80;;;;;;5078205;27;90646;-66
2022/01/28 06:53:23;;;;;;;3.40;1.00;;;19.50;43.70;;;;;;5082899;27;88796;-66
2022/01/28 06:55:51;;;;;;;1.80;0.57;;;19.50;43.70;;;;;;5082960;27;90087;-66
2022/01/28 06:58:19;;;;;;;5.20;1.07;;;19.50;43.70;;;;;;5080584;27;88837;-66
2022/01/28 07:00:49;;;;;;;2.20;0.50;;;19.40;43.60;;;;;;5072469;27;90497;-66
2022/01/28 07:03:17;;;;;;;2.30;0.73;;;19.40;43.70;;;;;;5079385;27;89172;-66
2022/01/28 07:05:45;;;;;;;1.53;0.90;;;19.40;43.80;;;;;;5083472;27;88402;-66
2022/01/28 07:08:13;;;;;;;1.23;0.67;;;19.40;43.90;;;;;;5083255;27;88608;-66
2022/01/28 07:10:41;;;;;;;1.23;0.77;;;19.40;43.90;;;;;;5075886;27;90550;-65
2022/01/28 07:13:09;;;;;;;1.27;0.70;;;19.40;44.00;;;;;;5068246;27;90071;-65
2022/01/28 07:15:37;;;;;;;2.70;1.03;;;19.40;44.10;;;;;;5066769;27;88381;-64
2022/01/28 07:18:06;;;;;;;3.67;0.60;;;19.50;44.30;;;;;;5077324;27;88620;-65
2022/01/28 07:20:34;;;;;;;1.40;0.77;;;19.60;44.40;;;;;;5082745;27;90717;-63
2022/01/28 07:23:02;;;;;;;3.63;0.93;;;19.70;44.60;;;;;;5077120;27;90229;-65
2022/01/28 07:25:30;;;;;;;2.00;1.07;;;19.80;44.80;;;;;;5083976;27;88521;-65
2022/01/28 07:27:59;;;;;;;5.87;0.80;;;19.90;44.90;;;;;;5081404;27;89181;-65
2022/01/28 07:30:27;;;;;;;2.60;1.43;;;20.00;45.00;;;;;;5082682;27;90585;-65
2022/01/28 07:32:55;;;;;;;4.87;0.77;;;20.20;45.10;;;;;;5082112;27;89116;-66
2022/01/28 07:35:25;;;;;;;1.23;0.80;;;20.40;45.10;;;;;;5069142;27;88433;-65
2022/01/28 07:37:53;;;;;;;0.57;0.57;;;20.60;45.20;;;;;;5068584;27;88586;-66
2022/01/28 07:40:21;;;;;;;6.43;1.20;;;20.80;45.20;;;;;;5079833;27;90637;-66
2022/01/28 07:42:49;;;;;;;0.97;0.57;;;21.00;45.10;;;;;;5083339;27;89996;-65
2022/01/28 07:45:16;;;;;;;6.60;0.70;;;21.20;45.00;;;;;;5082777;27;88569;-65
2022/01/28 07:47:45;;;;;;;3.37;0.77;;;21.40;45.00;;;;;;5069058;27;88505;-65
2022/01/28 07:50:13;;;;;;;1.27;0.80;;;21.50;45.00;;;;;;5077108;27;90684;-65
2022/01/28 07:52:43;;;;;;;1.70;0.93;;;21.60;44.90;;;;;;5082286;27;90542;-65
2022/01/28 07:55:12;;;;;;;2.53;0.60;;;21.60;44.90;;;;;;5080145;27;88387;-65
2022/01/28 07:57:40;;;;;;;3.67;1.43;;;21.70;45.00;;;;;;5081946;27;88411;-65
2022/01/28 08:00:10;;;;;;;3.67;0.70;;;21.70;44.90;;;;;;5080872;27;89673;-65
2022/01/28 08:02:37;;;;;;;1.00;0.50;;;21.80;44.90;;;;;;5063997;27;89942;-65
2022/01/28 08:05:06;;;;;;;2.67;0.83;;;22.00;45.60;;;;;;5077041;27;88422;-66
2022/01/28 08:07:34;;;;;;;1.23;0.53;;;22.10;44.90;;;;;;5062978;27;88562;-65
2022/01/28 08:10:04;;;;;;;2.73;0.93;;;22.20;44.80;;;;;;5073120;27;90102;-64
2022/01/28 08:12:32;;;;;;;4.80;1.10;;;22.30;44.70;;;;;;5078296;27;90092;-65
2022/01/28 08:15:00;;;;;;;2.83;0.90;;;22.40;44.60;;;;;;5063834;27;88882;-67
2022/01/28 08:17:32;;;;;;;8.03;1.23;;;22.30;44.30;;;;;;5072452;27;88856;-69
2022/01/28 08:20:00;;;;;;;13.07;1.40;;;22.30;44.20;;;;;;5079884;27;90830;-69
2022/01/28 08:22:30;;;;;;;6.70;1.40;;;22.30;44.20;;;;;;5080535;27;89134;-67
2022/01/28 08:24:58;;;;;;;6.50;1.70;;;22.30;44.20;;;;;;5075239;27;89784;-69
2022/01/28 08:27:27;;;;;;;6.70;1.40;;;22.30;44.20;;;;;;5068270;27;88497;-67
2022/01/28 08:29:55;;;;;;;10.37;1.80;;;22.20;44.20;;;;;;5076648;27;90638;-67
2022/01/28 08:32:23;;;;;;;7.07;2.13;;;22.20;44.20;;;;;;5065112;27;90216;-67
2022/01/28 08:34:51;;;;;;;9.53;1.80;;;22.20;44.20;;;;;;5078593;27;88929;-67
2022/01/28 08:37:19;;;;;;;5.60;1.73;;;22.30;44.30;;;;;;5071885;27;90066;-66
2022/01/28 08:39:49;;;;;;;11.17;2.20;;;22.40;44.30;;;;;;5077945;27;90703;-67
2022/01/28 08:42:17;;;;;;;10.03;2.00;;;22.60;44.40;;;;;;5080208;27;89984;-66
2022/01/28 08:44:46;;;;;;;6.63;1.80;;;22.70;44.30;;;;;;5080164;27;88835;-67
2022/01/28 08:47:14;;;;;;;7.77;1.80;;;22.90;44.20;;;;;;5068871;27;88735;-67
2022/01/28 08:49:42;;;;;;;7.23;1.70;;;23.10;44.20;;;;;;5075893;27;92741;-67
2022/01/28 08:52:10;;;;;;;6.13;1.70;;;23.20;44.00;;;;;;5072497;27;89119;-67
2022/01/28 08:54:38;;;;;;;7.37;1.73;;;23.30;43.90;;;;;;5071050;27;88583;-66
2022/01/28 08:57:06;;;;;;;12.10;1.90;;;23.40;43.90;;;;;;5080017;27;88477;-67
2022/01/28 08:59:39;;;;;;;4.70;1.73;;;23.40;43.80;;;;;;5075891;27;89889;-66
2022/01/28 09:02:08;;;;;;;6.10;1.23;;;23.40;43.80;;;;;;5059198;27;90078;-66
2022/01/28 09:04:36;;;;;;;5.83;1.60;;;23.40;43.80;;;;;;5075840;27;88416;-67
2022/01/28 09:07:04;;;;;;;5.17;1.90;;;23.50;43.80;;;;;;5080706;27;88618;-67
2022/01/28 09:09:32;;;;;;;8.47;1.80;;;23.60;43.80;;;;;;5080560;27;93657;-67
2022/01/28 09:12:18;;;;;;;7.03;1.70;;;23.60;43.70;;;;;;5077091;27;90083;-67
2022/01/28 09:14:46;;;;;;;4.50;1.10;;;23.80;43.70;;;;;;5069272;27;88887;-67
2022/01/28 09:17:15;;;;;;;5.37;1.30;;;24.00;43.60;;;;;;5069298;27;88644;-66
2022/01/28 09:19:44;;;;;;;3.70;1.13;;;24.10;43.50;;;;;;5078676;27;89563;-67
2022/01/28 09:22:12;;;;;;;3.93;1.27;;;24.20;43.40;;;;;;5061036;27;89042;-66
2022/01/28 09:24:41;;;;;;;5.83;1.37;;;24.30;43.30;;;;;;5059569;27;88887;-67
2022/01/28 09:27:08;;;;;;;7.83;1.30;;;24.30;43.20;;;;;;5078235;27;88594;-67
2022/01/28 09:29:36;;;;;;;11.37;1.50;;;24.30;43.10;;;;;;5069515;27;90467;-67
2022/01/28 09:32:05;;;;;;;13.90;1.57;;;24.20;43.00;;;;;;5058454;27;89181;-66
2022/01/28 09:34:35;;;;;;;4.33;1.33;;;24.20;43.10;;;;;;5070784;27;88628;-65
2022/01/28 09:37:03;;;;;;;5.10;1.53;;;24.10;43.00;;;;;;5067526;27;88621;-66
2022/01/28 09:39:33;;;;;;;3.10;1.17;;;24.00;43.00;;;;;;5070872;27;89679;-65
2022/01/28 09:42:03;;;;;;;3.40;1.07;;;23.90;43.20;;;;;;5078198;27;89141;-66
2022/01/28 09:44:32;;;;;;;4.43;1.17;;;23.80;43.00;;;;;;5094645;27;88567;-65
2022/01/28 09:47:00;;;;;;;6.63;1.20;;;23.70;43.00;;;;;;5091051;27;88443;-65
2022/01/28 09:49:28;;;;;;;3.77;1.20;;;23.60;43.10;;;;;;5082078;27;90633;-66
2022/01/28 09:51:57;;;;;;;6.87;1.30;;;23.60;43.20;;;;;;5064617;27;89042;-66
2022/01/28 09:54:25;;;;;;;3.23;1.30;;;23.50;43.20;;;;;;5079122;27;89002;-66
2022/01/28 09:56:53;;;;;;;3.07;0.97;;;23.60;43.20;;;;;;5089825;27;88687;-65
2022/01/28 09:59:21;;;;;;;1.90;0.90;;;23.60;43.10;;;;;;5095498;27;89664;-65
2022/01/28 10:01:50;;;;;;;2.40;1.10;;;23.80;43.10;;;;;;5071095;27;88995;-66
2022/01/28 10:04:18;;;;;;;1.83;0.80;;;23.90;43.00;;;;;;5077033;27;88488;-66
2022/01/28 10:06:47;;;;;;;3.40;1.47;;;24.10;42.90;;;;;;5086669;27;88558;-66
2022/01/28 10:09:18;;;;;;;8.10;1.23;;;24.20;42.80;;;;;;5100507;27;91000;-65
2022/01/28 10:11:49;;;;;;;4.93;1.07;;;24.30;42.80;;;;;;5059248;27;88316;-65
2022/01/28 10:14:20;;;;;;;2.00;0.83;;;24.30;42.70;;;;;;5061955;27;89595;-65
2022/01/28 10:16:55;;;;;;;3.00;0.90;;;24.30;42.60;;;;;;5077478;27;89703;-66
2022/01/28 10:19:24;;;;;;;6.93;1.20;;;24.20;42.60;;;;;;5079621;27;89794;-65
2022/01/28 10:21:52;;;;;;;2.83;1.07;;;24.20;42.60;;;;;;5079129;27;89031;-65
2022/01/28 10:24:22;;;;;;;3.57;1.00;;;24.20;42.60;;;;;;5061756;27;88374;-65
2022/01/28 10:26:51;;;;;;;4.03;0.90;;;24.10;42.70;;;;;;5090956;27;89105;-66
2022/01/28 10:29:20;;;;;;;1.97;0.90;;;24.00;42.80;;;;;;5084758;27;90083;-65
2022/01/28 10:31:51;;;;;;;2.80;1.23;;;23.90;42.80;;;;;;5086566;27;89966;-64
2022/01/28 10:34:22;;;;;;;3.03;1.37;;;23.80;42.80;;;;;;5084422;27;88484;-65
2022/01/28 10:36:50;;;;;;;5.70;1.33;;;23.70;43.50;;;;;;5085124;27;88599;-65
2022/01/28 10:39:21;;;;;;;1.33;0.73;;;23.60;42.90;;;;;;5065312;27;92213;-65
2022/01/28 10:41:54;;;;;;;1.77;0.90;;;23.50;42.90;;;;;;5058602;27;90686;-65
2022/01/28 10:44:23;;;;;;;2.90;0.93;;;23.50;42.90;;;;;;5058726;27;88564;-65
2022/01/28 10:46:54;;;;;;;3.30;0.97;;;23.40;43.00;;;;;;5058226;27;88626;-66
2022/01/28 10:49:30;;;;;;;2.37;1.10;;;23.40;43.10;;;;;;5059502;27;92330;-65
2022/01/28 10:52:07;;;;;;;2.23;0.70;;;23.40;43.00;;;;;;5068926;27;89174;-65
2022/01/28 10:54:36;;;;;;;2.27;0.67;;;23.50;43.00;;;;;;5060902;27;90083;-65
2022/01/28 10:57:06;;;;;;;1.33;0.80;;;23.60;43.00;;;;;;5045493;27;88526;-65
2022/01/28 10:59:36;;;;;;;4.17;1.20;;;23.80;42.90;;;;;;5067238;27;90672;-65
2022/01/28 11:02:04;;;;;;;4.07;0.80;;;24.00;42.90;;;;;;5083296;27;89174;-65
2022/01/28 11:04:33;;;;;;;5.30;1.30;;;24.10;42.70;;;;;;5064625;27;88595;-65
2022/01/28 11:07:02;;;;;;;2.77;1.07;;;24.20;42.60;;;;;;5046347;27;88708;-65
2022/01/28 11:09:30;;;;;;;0.90;0.77;;;24.30;42.70;;;;;;5052534;27;90636;-65
2022/01/28 11:12:01;;;;;;;4.63;1.63;;;24.30;42.60;;;;;;5059885;27;88406;-65
2022/01/28 11:14:29;;;;;;;5.60;2.50;;;24.30;43.30;;;;;;5061225;27;88460;-65
2022/01/28 11:16:57;;;;;;;6.13;2.60;;;24.30;42.70;;;;;;5066303;27;88389;-65
2022/01/28 11:19:27;;;;;;;6.13;3.27;;;24.40;43.40;;;;;;5047782;27;92516;-65
2022/01/28 11:22:16;;;;;;;4.10;2.10;;;24.30;42.70;;;;;;5054785;27;88927;-65
2022/01/28 11:25:05;;;;;;;8.70;2.47;;;24.20;42.80;;;;;;5041935;28;89385;-65
2022/01/28 11:27:36;;;;;;;3.70;2.37;;;24.20;42.90;;;;;;5043269;27;88789;-66
2022/01/28 11:30:22;;;;;;;7.73;2.60;;;24.10;43.00;;;;;;5061468;27;90273;-67
2022/01/28 11:33:01;;;;;;;6.33;3.47;;;24.00;43.20;;;;;;5041410;28;90273;-67
2022/01/28 11:35:31;;;;;;;8.70;2.87;;;24.00;43.40;;;;;;5041460;28;88766;-65
2022/01/28 11:38:04;;;;;;;104.37;33.90;;;24.00;44.30;;;;;;5058517;27;88709;-65
2022/01/28 11:40:44;;;;;;;87.77;38.57;;;24.00;43.90;;;;;;5080953;27;90721;-64
2022/01/28 11:43:20;;;;;;;86.37;37.87;;;24.00;44.20;;;;;;5061709;27;89273;-64
2022/01/28 11:45:49;;;;;;;137.67;52.87;;;24.00;44.30;;;;;;5068447;27;89980;-65
2022/01/28 11:48:17;;;;;;;124.10;51.60;;;24.10;44.70;;;;;;5083443;27;88743;-64
2022/01/28 11:50:51;;;;;;;117.83;44.73;;;24.10;45.00;;;;;;5080896;27;92525;-65
2022/01/28 11:53:24;;;;;;;117.40;44.43;;;24.10;45.20;;;;;;5080723;27;90713;-64
2022/01/28 11:56:01;;;;;;;124.83;51.13;;;24.10;45.40;;;;;;5080762;27;88379;-65
2022/01/28 11:58:52;;;;;;;142.63;74.10;;;24.10;45.70;;;;;;5081123;27;88644;-66
2022/01/28 12:01:24;;;;;;;194.07;98.33;;;24.10;46.00;;;;;;5080680;27;89923;-66
2022/01/28 12:04:02;;;;;;;97.83;55.80;;;24.10;46.00;;;;;;5081714;27;92708;-66
2022/01/28 12:06:31;;;;;;;143.97;72.93;;;24.10;46.20;;;;;;5080411;27;89285;-66
2022/01/28 12:08:59;;;;;;;105.97;52.63;;;24.00;46.20;;;;;;5098083;27;88606;-66
2022/01/28 12:11:42;;;;;;;114.93;48.83;;;24.00;46.50;;;;;;5100725;27;90584;-66
2022/01/28 12:14:18;;;;;;;63.07;34.63;;;23.90;46.70;;;;;;5075388;27;90136;-66
2022/01/28 12:16:47;;;;;;;54.07;28.80;;;23.90;47.00;;;;;;5080852;27;92171;-66
2022/01/28 12:19:16;;;;;;;48.57;25.47;;;23.90;47.20;;;;;;5080619;27;88988;-66
2022/01/28 12:22:05;;;;;;;35.83;21.17;;;23.80;47.20;;;;;;5079878;27;89349;-67
2022/01/28 12:24:34;;;;;;;34.33;19.10;;;23.80;47.30;;;;;;5081134;27;89661;-66
2022/01/28 12:27:03;;;;;;;32.10;16.90;;;23.80;47.30;;;;;;5073535;27;88548;-66
2022/01/28 12:29:33;;;;;;;26.80;14.17;;;23.70;47.20;;;;;;5080675;27;88478;-67
2022/01/28 12:32:02;;;;;;;26.00;11.17;;;23.60;47.00;;;;;;5069623;27;90924;-67
2022/01/28 12:34:30;;;;;;;23.70;10.63;;;23.60;47.60;;;;;;5073745;27;88606;-67
2022/01/28 12:36:59;;;;;;;31.47;10.87;;;23.60;46.80;;;;;;5079937;27;90092;-66
2022/01/28 12:39:36;;;;;;;18.97;7.97;;;23.50;46.60;;;;;;5062732;27;88546;-67
2022/01/28 12:42:08;;;;;;;16.00;6.27;;;23.40;46.30;;;;;;5063285;27;89594;-66
2022/01/28 12:44:38;;;;;;;13.63;6.00;;;23.40;46.10;;;;;;5059118;27;89292;-67
2022/01/28 12:47:09;;;;;;;18.40;6.23;;;23.30;46.00;;;;;;5075311;27;89977;-66
2022/01/28 12:49:38;;;;;;;9.87;4.57;;;23.30;45.80;;;;;;5081448;27;88460;-67
2022/01/28 12:52:07;;;;;;;13.17;3.73;;;23.30;45.70;;;;;;5081292;27;91585;-67
2022/01/28 12:54:42;;;;;;;12.50;3.97;;;23.30;45.60;;;;;;5080169;27;89003;-67
2022/01/28 12:57:11;;;;;;;10.13;3.53;;;23.40;45.50;;;;;;5085950;27;88563;-67
2022/01/28 12:59:42;;;;;;;11.47;3.37;;;23.50;45.30;;;;;;5062911;27;88827;-67
2022/01/28 13:02:10;;;;;;;13.37;3.07;;;23.70;45.10;;;;;;5075613;27;90695;-67
2022/01/28 13:05:10;;;;;;;15.97;3.30;;;23.90;45.00;;;;;;5074068;27;91188;-67
2022/01/28 13:10:30;;;;;;;8.50;2.97;;;24.10;44.50;;;;;;5080663;27;88439;-67
2022/01/28 13:13:04;;;;;;;8.10;2.20;;;24.20;44.50;;;;;;5077988;27;90553;-67
2022/01/28 13:15:34;;;;;;;8.17;2.70;;;24.10;44.30;;;;;;5062409;27;89017;-67
2022/01/28 13:18:03;;;;;;;7.60;2.37;;;24.20;44.30;;;;;;5094228;27;88396;-67
2022/01/28 13:20:33;;;;;;;3.93;1.83;;;24.20;44.20;;;;;;5068530;27;89162;-67
2022/01/28 13:23:01;;;;;;;7.10;2.37;;;24.10;44.10;;;;;;5059627;27;90659;-66
2022/01/28 13:25:29;;;;;;;7.33;1.53;;;24.00;43.80;;;;;;5077663;27;89170;-66
2022/01/28 13:28:00;;;;;;;5.53;2.20;;;24.00;43.60;;;;;;5083171;27;88507;-67
2022/01/28 13:30:31;;;;;;;6.83;1.70;;;23.90;43.40;;;;;;5062021;27;90194;-66
2022/01/28 13:33:05;;;;;;;2.17;1.40;;;23.80;43.20;;;;;;5084377;27;89785;-67
2022/01/28 13:35:35;;;;;;;6.30;1.67;;;23.70;43.00;;;;;;5101373;27;91251;-67
2022/01/28 13:38:13;;;;;;;3.60;1.23;;;23.70;43.00;;;;;;5081597;27;88843;-67
2022/01/28 13:40:42;;;;;;;6.83;1.93;;;23.60;42.90;;;;;;5067648;27;88368;-66
2022/01/28 13:43:10;;;;;;;2.43;1.50;;;23.60;42.90;;;;;;5081238;27;90608;-67
2022/01/28 13:45:41;;;;;;;2.50;1.10;;;23.50;42.90;;;;;;5081356;27;90208;-67
2022/01/28 13:48:13;;;;;;;5.03;1.77;;;23.40;42.90;;;;;;5081238;27;88887;-67
2022/01/28 13:50:42;;;;;;;3.20;1.70;;;23.40;42.90;;;;;;5075539;27;88564;-67